createdAt,value
2022-09-12T00:00:28.670Z,22.40
2022-09-12T00:02:55.475Z,22.40
2022-09-12T00:05:22.589Z,22.50
2022-09-12T00:07:49.502Z,22.40
2022-09-12T00:10:17.251Z,22.40
2022-09-12T00:12:44.105Z,22.40
2022-09-12T00:15:11.098Z,22.40
2022-09-12T00:17:38.814Z,22.40
2022-09-12T00:20:08.573Z,22.40
2022-09-12T00:22:36.150Z,22.40
2022-09-12T00:25:04.099Z,22.40
2022-09-12T00:27:30.841Z,22.40
2022-09-12T00:29:57.883Z,22.40
2022-09-12T00:32:24.575Z,22.40
2022-09-12T00:34:51.333Z,22.40
2022-09-12T00:37:18.029Z,22.30
2022-09-12T00:39:45.016Z,22.30
2022-09-12T00:42:12.726Z,22.30
2022-09-12T00:44:43.820Z,22.30
2022-09-12T00:47:23.390Z,22.30
2022-09-12T00:49:55.641Z,22.40
2022-09-12T00:52:37.130Z,22.30
2022-09-12T00:55:06.470Z,22.40
2022-09-12T00:57:45.563Z,22.30
2022-09-12T01:00:16.384Z,22.40
2022-09-12T01:02:45.337Z,22.30
2022-09-12T01:05:13.500Z,22.30
2022-09-12T01:07:41.038Z,22.30
2022-09-12T01:10:09.772Z,22.30
2022-09-12T01:12:40.580Z,22.30
2022-09-12T01:15:08.052Z,22.30
2022-09-12T01:17:58.868Z,22.20
2022-09-12T01:20:57.892Z,22.30
2022-09-12T01:23:45.874Z,22.20
2022-09-12T01:26:37.337Z,22.20
2022-09-12T01:29:19.311Z,22.20
2022-09-12T01:32:00.729Z,22.20
2022-09-12T01:34:54.638Z,22.20
2022-09-12T01:37:36.647Z,22.20
2022-09-12T01:40:29.461Z,22.20
2022-09-12T01:43:04.786Z,22.10
2022-09-12T01:45:59.349Z,22.10
2022-09-12T01:48:35.876Z,22.10
2022-09-12T01:51:34.266Z,22.10
2022-09-12T01:54:10.929Z,22.10
2022-09-12T01:56:41.610Z,22.00
2022-09-12T01:59:16.759Z,22.00
2022-09-12T02:01:56.374Z,22.00
2022-09-12T02:04:34.141Z,22.00
2022-09-12T02:07:27.480Z,22.00
2022-09-12T02:10:23.156Z,21.90
2022-09-12T02:13:04.501Z,21.90
2022-09-12T02:15:39.240Z,21.90
2022-09-12T02:18:06.938Z,21.80
2022-09-12T02:20:48.549Z,21.80
2022-09-12T02:23:26.437Z,21.80
2022-09-12T02:25:57.845Z,21.80
2022-09-12T02:28:33.052Z,21.70
2022-09-12T02:31:37.697Z,21.80
2022-09-12T02:34:52.770Z,21.70
2022-09-12T02:37:45.366Z,21.70
2022-09-12T02:40:12.775Z,21.70
2022-09-12T02:42:39.527Z,21.70
2022-09-12T02:45:07.318Z,21.70
2022-09-12T02:47:39.696Z,21.70
2022-09-12T02:50:08.224Z,21.70
2022-09-12T02:52:36.519Z,21.60
2022-09-12T02:55:05.934Z,21.70
2022-09-12T02:57:33.022Z,21.70
2022-09-12T03:00:01.631Z,21.70
2022-09-12T03:03:03.373Z,21.70
2022-09-12T03:05:47.357Z,21.60
2022-09-12T03:08:39.015Z,21.60
2022-09-12T03:11:13.358Z,21.60
2022-09-12T03:14:26.393Z,21.50
2022-09-12T03:17:13.472Z,21.50
2022-09-12T03:20:19.549Z,21.40
2022-09-12T03:22:59.488Z,21.40
2022-09-12T03:25:35.970Z,21.50
2022-09-12T03:28:07.466Z,21.50
2022-09-12T03:30:42.806Z,21.50
2022-09-12T03:33:18.364Z,21.50
2022-09-12T03:35:46.733Z,21.50
2022-09-12T03:38:13.635Z,21.50
2022-09-12T03:40:41.341Z,21.50
2022-09-12T03:43:11.857Z,21.40
2022-09-12T03:45:38.844Z,21.40
2022-09-12T03:48:06.517Z,21.40
2022-09-12T03:50:33.859Z,21.40
2022-09-12T03:53:00.807Z,21.30
2022-09-12T03:55:27.672Z,21.30
2022-09-12T03:57:54.944Z,21.30
2022-09-12T04:00:21.999Z,21.30
2022-09-12T04:02:48.708Z,21.30
2022-09-12T04:05:15.533Z,21.30
2022-09-12T04:07:42.256Z,21.30
2022-09-12T04:10:09.713Z,21.20
2022-09-12T04:12:36.827Z,21.20
2022-09-12T04:15:03.814Z,21.20
2022-09-12T04:17:30.488Z,21.10
2022-09-12T04:19:57.161Z,21.10
2022-09-12T04:22:24.297Z,21.10
2022-09-12T04:24:50.980Z,21.10
2022-09-12T04:27:18.119Z,21.00
2022-09-12T04:29:44.813Z,21.00
2022-09-12T04:32:11.669Z,21.00
2022-09-12T04:34:39.145Z,21.00
2022-09-12T04:37:05.899Z,21.00
2022-09-12T04:39:32.607Z,21.00
2022-09-12T04:41:59.301Z,21.10
2022-09-12T04:44:26.113Z,21.10
2022-09-12T04:46:52.862Z,21.10
2022-09-12T04:49:19.611Z,21.10
2022-09-12T04:51:46.420Z,21.10
2022-09-12T04:54:18.761Z,21.10
2022-09-12T04:56:48.768Z,21.10
2022-09-12T04:59:16.856Z,21.10
2022-09-12T05:01:43.815Z,21.10
2022-09-12T05:04:12.955Z,21.10
2022-09-12T05:06:41.496Z,21.00
2022-09-12T05:09:11.585Z,21.00
2022-09-12T05:12:03.832Z,20.90
2022-09-12T05:14:27.278Z,20.90
2022-09-12T05:16:54.088Z,20.90
2022-09-12T05:19:20.895Z,20.90
2022-09-12T05:21:47.667Z,20.80
2022-09-12T05:24:14.499Z,20.80
2022-09-12T05:26:41.219Z,20.80
2022-09-12T05:29:08.003Z,20.80
2022-09-12T05:31:35.226Z,20.80
2022-09-12T05:34:04.599Z,20.80
2022-09-12T05:36:31.723Z,20.80
2022-09-12T05:39:00.143Z,20.80
2022-09-12T05:41:30.751Z,20.80
2022-09-12T05:43:59.595Z,20.80
2022-09-12T05:46:31.679Z,20.80
2022-09-12T05:49:04.448Z,20.80
2022-09-12T05:51:34.250Z,20.80
2022-09-12T05:54:03.366Z,20.80
2022-09-12T05:56:33.169Z,20.80
2022-09-12T05:59:12.509Z,20.80
2022-09-12T06:01:39.251Z,20.80
2022-09-12T06:04:07.000Z,20.80
2022-09-12T06:06:38.499Z,20.80
2022-09-12T06:09:06.137Z,20.80
2022-09-12T06:11:37.164Z,20.80
2022-09-12T06:14:04.425Z,20.90
2022-09-12T06:16:33.545Z,20.90
2022-09-12T06:19:05.065Z,20.90
2022-09-12T06:21:31.974Z,20.90
2022-09-12T06:23:59.215Z,21.00
2022-09-12T06:26:27.494Z,21.10
2022-09-12T06:28:56.551Z,21.10
2022-09-12T06:31:26.356Z,21.10
2022-09-12T06:33:54.230Z,21.20
2022-09-12T06:36:27.017Z,21.20
2022-09-12T06:38:56.259Z,21.30
2022-09-12T06:41:24.126Z,21.30
2022-09-12T06:43:51.283Z,21.30
2022-09-12T06:46:18.977Z,21.40
2022-09-12T06:48:45.873Z,21.40
2022-09-12T06:51:14.990Z,21.40
2022-09-12T06:53:42.684Z,21.50
2022-09-12T06:56:10.806Z,21.50
2022-09-12T06:58:38.213Z,21.50
2022-09-12T07:01:08.021Z,21.60
2022-09-12T07:03:35.342Z,21.60
2022-09-12T07:06:24.145Z,21.70
2022-09-12T07:08:51.319Z,21.70
2022-09-12T07:11:21.211Z,21.80
2022-09-12T07:13:50.629Z,21.80
2022-09-12T07:16:19.852Z,21.90
2022-09-12T07:18:57.576Z,21.90
2022-09-12T07:21:25.085Z,21.90
2022-09-12T07:23:52.189Z,22.00
2022-09-12T07:26:19.300Z,22.00
2022-09-12T07:28:50.649Z,22.10
2022-09-12T07:31:19.372Z,22.10
2022-09-12T07:33:47.493Z,22.20
2022-09-12T07:36:17.528Z,22.20
2022-09-12T07:38:46.840Z,22.30
2022-09-12T07:41:28.415Z,22.30
2022-09-12T07:44:00.176Z,22.40
2022-09-12T07:46:29.651Z,22.40
2022-09-12T07:48:57.888Z,22.50
2022-09-12T07:51:27.745Z,22.50
2022-09-12T07:53:56.286Z,22.60
2022-09-12T07:56:27.379Z,22.60
2022-09-12T07:58:56.912Z,22.70
2022-09-12T08:01:24.024Z,22.70
2022-09-12T08:03:55.297Z,22.80
2022-09-12T08:06:26.236Z,22.80
2022-09-12T08:08:55.715Z,22.80
2022-09-12T08:11:23.794Z,22.90
2022-09-12T08:13:55.359Z,22.90
2022-09-12T08:16:27.836Z,23.00
2022-09-12T08:18:54.744Z,23.00
2022-09-12T08:21:26.479Z,23.10
2022-09-12T08:23:58.434Z,23.10
2022-09-12T08:26:25.883Z,23.20
2022-09-12T08:28:53.507Z,23.30
2022-09-12T08:31:22.012Z,23.30
2022-09-12T08:33:49.032Z,23.30
2022-09-12T08:36:24.444Z,23.40
2022-09-12T08:38:59.339Z,23.50
2022-09-12T08:41:41.688Z,23.50
2022-09-12T08:44:34.899Z,23.70
2022-09-12T08:47:22.378Z,23.70
2022-09-12T08:50:10.334Z,23.70
2022-09-12T08:52:52.107Z,23.80
2022-09-12T08:55:33.753Z,23.80
2022-09-12T08:58:20.821Z,23.90
2022-09-12T09:01:12.447Z,23.90
2022-09-12T09:04:07.228Z,24.00
2022-09-12T09:06:55.757Z,24.10
2022-09-12T09:09:45.072Z,24.10
2022-09-12T09:12:56.440Z,24.20
2022-09-12T09:15:36.533Z,24.20
2022-09-12T09:18:08.486Z,24.30
2022-09-12T09:20:49.977Z,24.30
2022-09-12T09:23:30.854Z,24.40
2022-09-12T09:26:17.058Z,24.60
2022-09-12T09:28:59.336Z,24.60
2022-09-12T09:31:30.032Z,24.70
2022-09-12T09:33:57.465Z,24.70
2022-09-12T09:37:03.221Z,24.80
2022-09-12T09:39:50.037Z,24.80
2022-09-12T09:42:31.954Z,24.90
2022-09-12T09:45:02.975Z,24.90
2022-09-12T09:47:29.745Z,25.00
2022-09-12T09:49:56.921Z,25.00
2022-09-12T09:52:30.480Z,25.10
2022-09-12T09:55:01.898Z,25.20
2022-09-12T09:57:34.418Z,25.30
2022-09-12T10:00:27.859Z,25.30
2022-09-12T10:03:13.395Z,25.40
2022-09-12T10:05:52.814Z,25.50
2022-09-12T10:08:26.966Z,25.60
2022-09-12T10:11:03.560Z,25.60
2022-09-12T10:13:52.805Z,25.60
2022-09-12T10:16:22.448Z,25.60
2022-09-12T10:18:52.452Z,25.60
2022-09-12T10:21:25.397Z,25.70
2022-09-12T10:24:18.631Z,25.80
2022-09-12T10:27:07.148Z,25.80
2022-09-12T10:29:41.397Z,25.90
2022-09-12T10:32:09.431Z,25.90
2022-09-12T10:34:43.250Z,26.00
2022-09-12T10:37:18.502Z,26.10
2022-09-12T10:39:53.706Z,26.20
2022-09-12T10:42:45.411Z,26.20
2022-09-12T10:45:32.018Z,26.30
2022-09-12T10:48:05.467Z,26.30
2022-09-12T10:50:43.019Z,26.40
2022-09-12T10:53:33.659Z,26.50
2022-09-12T10:56:12.131Z,26.50
2022-09-12T10:58:51.085Z,26.50
2022-09-12T11:01:33.925Z,26.60
2022-09-12T11:04:16.956Z,26.60
2022-09-12T11:06:52.917Z,26.70
2022-09-12T11:09:36.580Z,26.70
2022-09-12T11:12:42.159Z,26.80
2022-09-12T11:15:22.464Z,26.80
2022-09-12T11:18:22.829Z,26.80
2022-09-12T11:21:15.499Z,26.90
2022-09-12T11:24:16.456Z,26.90
2022-09-12T11:27:20.057Z,27.00
2022-09-12T11:29:46.966Z,26.90
2022-09-12T11:32:41.539Z,27.00
2022-09-12T11:35:17.246Z,27.00
2022-09-12T11:38:09.013Z,27.10
2022-09-12T11:40:44.824Z,27.20
2022-09-12T11:43:47.713Z,27.40
2022-09-12T11:46:24.716Z,27.40
2022-09-12T11:48:54.824Z,27.50
2022-09-12T11:51:28.911Z,27.60
2022-09-12T11:54:22.942Z,27.70
2022-09-12T11:57:12.376Z,27.80
2022-09-12T12:00:17.855Z,27.90
2022-09-12T12:03:08.771Z,27.90
2022-09-12T12:06:05.821Z,27.90
2022-09-12T12:08:38.572Z,28.00
2022-09-12T12:11:08.403Z,28.00
2022-09-12T12:13:54.052Z,28.20
2022-09-12T12:16:38.830Z,28.30
2022-09-12T12:19:38.100Z,28.40
2022-09-12T12:22:25.596Z,28.40
2022-09-12T12:25:00.564Z,28.60
2022-09-12T12:27:47.161Z,28.60
2022-09-12T12:30:29.425Z,28.60
2022-09-12T12:33:13.206Z,28.60
2022-09-12T12:35:41.582Z,28.60
2022-09-12T12:38:47.293Z,28.70
2022-09-12T12:41:19.663Z,28.80
2022-09-12T12:43:48.205Z,28.90
2022-09-12T12:46:29.508Z,28.90
2022-09-12T12:48:59.875Z,28.80
2022-09-12T12:51:38.914Z,28.80
2022-09-12T12:54:38.641Z,28.80
2022-09-12T12:57:22.941Z,28.80
2022-09-12T13:00:30.709Z,28.90
2022-09-12T13:03:06.723Z,29.00
2022-09-12T13:05:47.328Z,29.10
2022-09-12T13:08:17.112Z,29.10
2022-09-12T13:11:05.226Z,29.20
2022-09-12T13:13:37.654Z,29.20
2022-09-12T13:16:05.021Z,29.20
2022-09-12T13:18:44.820Z,29.20
2022-09-12T13:21:29.893Z,29.30
2022-09-12T13:24:03.742Z,29.30
2022-09-12T13:26:40.530Z,29.40
2022-09-12T13:29:20.622Z,29.50
2022-09-12T13:31:52.968Z,29.40
2022-09-12T13:34:41.729Z,29.50
2022-09-12T13:37:27.104Z,29.60
2022-09-12T13:40:17.780Z,29.70
2022-09-12T13:43:05.382Z,29.70
2022-09-12T13:45:36.142Z,29.70
2022-09-12T13:48:04.480Z,29.80
2022-09-12T13:50:56.660Z,29.80
2022-09-12T13:53:28.819Z,29.90
2022-09-12T13:55:59.335Z,29.90
2022-09-12T13:58:31.629Z,29.90
2022-09-12T14:01:07.277Z,29.90
2022-09-12T14:03:59.305Z,29.90
2022-09-12T14:06:27.757Z,29.90
2022-09-12T14:09:01.364Z,29.90
2022-09-12T14:11:30.557Z,29.90
2022-09-12T14:13:58.272Z,29.90
2022-09-12T14:16:29.018Z,29.90
2022-09-12T14:18:56.292Z,30.00
2022-09-12T14:21:30.448Z,30.10
2022-09-12T14:23:58.291Z,30.10
2022-09-12T14:26:28.224Z,30.10
2022-09-12T14:28:55.187Z,30.10
2022-09-12T14:31:39.379Z,30.10
2022-09-12T14:34:12.039Z,30.20
2022-09-12T14:36:46.675Z,30.20
2022-09-12T14:39:24.732Z,30.30
2022-09-12T14:42:01.356Z,30.30
2022-09-12T14:44:29.636Z,30.30
2022-09-12T14:46:59.538Z,30.30
2022-09-12T14:49:36.768Z,30.30
2022-09-12T14:52:07.066Z,30.20
2022-09-12T14:54:37.375Z,30.20
2022-09-12T14:57:24.497Z,30.30
2022-09-12T14:59:51.245Z,30.30
2022-09-12T15:02:20.957Z,30.40
2022-09-12T15:05:16.220Z,30.40
2022-09-12T15:07:51.261Z,30.50
2022-09-12T15:10:25.151Z,30.50
2022-09-12T15:13:14.348Z,30.60
2022-09-12T15:15:43.471Z,30.60
2022-09-12T15:18:10.758Z,30.70
2022-09-12T15:20:40.118Z,30.80
2022-09-12T15:23:14.601Z,30.80
2022-09-12T15:25:41.539Z,30.90
2022-09-12T15:28:22.536Z,31.00
2022-09-12T15:30:52.271Z,30.90
2022-09-12T15:33:21.019Z,30.80
2022-09-12T15:35:47.735Z,30.60
2022-09-12T15:38:14.915Z,30.60
2022-09-12T15:40:41.904Z,30.60
2022-09-12T15:43:12.146Z,30.60
2022-09-12T15:45:38.881Z,30.60
2022-09-12T15:48:05.821Z,30.50
2022-09-12T15:50:32.805Z,30.50
2022-09-12T15:52:59.591Z,30.60
2022-09-12T15:55:32.155Z,30.60
2022-09-12T15:58:03.570Z,30.60
2022-09-12T16:00:33.111Z,30.70
2022-09-12T16:02:59.844Z,30.70
2022-09-12T16:05:27.375Z,30.70
2022-09-12T16:07:55.549Z,30.60
2022-09-12T16:10:29.080Z,30.60
2022-09-12T16:12:56.090Z,30.60
2022-09-12T16:15:25.063Z,30.60
2022-09-12T16:17:52.580Z,30.60
2022-09-12T16:20:20.825Z,30.50
2022-09-12T16:22:47.722Z,30.50
2022-09-12T16:25:14.506Z,30.40
2022-09-12T16:27:41.622Z,30.40
2022-09-12T16:30:09.633Z,30.40
2022-09-12T16:32:36.491Z,30.40
2022-09-12T16:35:03.899Z,30.40
2022-09-12T16:37:34.408Z,30.40
2022-09-12T16:40:02.401Z,30.40
2022-09-12T16:42:29.440Z,30.40
2022-09-12T16:44:56.127Z,30.40
2022-09-12T16:47:23.165Z,30.40
2022-09-12T16:49:51.294Z,30.40
2022-09-12T16:52:19.056Z,30.30
2022-09-12T16:54:45.823Z,30.30
2022-09-12T16:57:12.905Z,30.30
2022-09-12T16:59:39.668Z,30.20
2022-09-12T17:02:07.531Z,30.20
2022-09-12T17:04:34.291Z,30.20
2022-09-12T17:07:01.241Z,30.20
2022-09-12T17:09:29.336Z,30.20
2022-09-12T17:11:57.257Z,30.10
2022-09-12T17:14:24.509Z,30.10
2022-09-12T17:16:52.155Z,30.10
2022-09-12T17:19:28.030Z,30.00
2022-09-12T17:21:55.401Z,30.00
2022-09-12T17:24:23.087Z,29.90
2022-09-12T17:26:50.435Z,29.90
2022-09-12T17:29:17.686Z,29.90
2022-09-12T17:31:45.328Z,29.90
2022-09-12T17:34:14.489Z,29.80
2022-09-12T17:36:44.245Z,29.80
2022-09-12T17:39:12.501Z,29.70
2022-09-12T17:41:40.068Z,29.60
2022-09-12T17:44:07.569Z,29.50
2022-09-12T17:46:37.219Z,29.50
2022-09-12T17:49:07.174Z,29.40
2022-09-12T17:51:34.213Z,29.30
2022-09-12T17:54:08.621Z,29.30
2022-09-12T17:56:37.176Z,29.20
2022-09-12T17:59:05.539Z,29.10
2022-09-12T18:01:51.461Z,29.00
2022-09-12T18:04:19.907Z,28.90
2022-09-12T18:06:48.801Z,28.70
2022-09-12T18:09:18.326Z,28.60
2022-09-12T18:11:45.951Z,28.50
2022-09-12T18:14:14.375Z,28.50
2022-09-12T18:16:41.660Z,28.40
2022-09-12T18:19:08.647Z,28.30
2022-09-12T18:21:35.386Z,28.30
2022-09-12T18:24:03.241Z,28.20
2022-09-12T18:26:31.094Z,28.20
2022-09-12T18:28:58.547Z,28.10
2022-09-12T18:31:28.864Z,28.00
2022-09-12T18:33:56.728Z,28.00
2022-09-12T18:36:23.892Z,27.90
2022-09-12T18:38:50.638Z,27.80
2022-09-12T18:41:19.827Z,27.80
2022-09-12T18:43:47.730Z,27.70
2022-09-12T18:46:17.293Z,27.70
2022-09-12T18:48:47.281Z,27.60
2022-09-12T18:51:25.856Z,27.60
2022-09-12T18:53:56.131Z,27.50
2022-09-12T18:56:24.840Z,27.50
2022-09-12T18:58:53.674Z,27.40
2022-09-12T19:01:23.888Z,27.40
2022-09-12T19:03:52.152Z,27.30
2022-09-12T19:06:21.602Z,27.30
2022-09-12T19:08:49.561Z,27.20
2022-09-12T19:11:17.748Z,27.20
2022-09-12T19:13:46.393Z,27.10
2022-09-12T19:16:16.256Z,27.10
2022-09-12T19:18:43.620Z,27.00
2022-09-12T19:21:18.492Z,27.00
2022-09-12T19:23:45.638Z,27.00
2022-09-12T19:26:14.046Z,26.90
2022-09-12T19:28:41.074Z,26.90
2022-09-12T19:31:10.015Z,26.90
2022-09-12T19:33:36.998Z,26.80
2022-09-12T19:36:34.117Z,26.80
2022-09-12T19:39:01.626Z,26.80
2022-09-12T19:41:28.579Z,26.70
2022-09-12T19:43:56.375Z,26.60
2022-09-12T19:46:25.690Z,26.70
2022-09-12T19:48:52.778Z,26.70
2022-09-12T19:51:20.758Z,26.60
2022-09-12T19:53:48.474Z,26.70
2022-09-12T19:56:15.278Z,26.70
2022-09-12T19:58:46.813Z,26.80
2022-09-12T20:01:18.904Z,26.80
2022-09-12T20:03:46.655Z,26.80
2022-09-12T20:06:16.348Z,26.80
2022-09-12T20:08:44.110Z,26.80
2022-09-12T20:11:13.103Z,26.80
2022-09-12T20:13:40.377Z,26.80
2022-09-12T20:16:07.435Z,26.80
2022-09-12T20:18:34.568Z,26.70
2022-09-12T20:21:12.792Z,26.70
2022-09-12T20:23:41.147Z,26.70
2022-09-12T20:26:08.964Z,26.70
2022-09-12T20:28:39.789Z,26.60
2022-09-12T20:31:16.334Z,26.50
2022-09-12T20:33:47.548Z,26.50
2022-09-12T20:36:19.727Z,26.40
2022-09-12T20:39:01.239Z,26.40
2022-09-12T20:41:30.687Z,26.40
2022-09-12T20:43:58.055Z,26.40
2022-09-12T20:46:26.421Z,26.30
2022-09-12T20:48:53.271Z,26.30
2022-09-12T20:51:21.053Z,26.30
2022-09-12T20:53:48.691Z,26.20
2022-09-12T20:56:15.547Z,26.20
2022-09-12T20:58:44.299Z,26.10
2022-09-12T21:01:13.296Z,26.10
2022-09-12T21:03:41.326Z,26.10
2022-09-12T21:06:09.555Z,26.00
2022-09-12T21:08:37.158Z,26.00
2022-09-12T21:11:04.513Z,26.00
2022-09-12T21:13:31.307Z,25.90
2022-09-12T21:16:09.098Z,25.90
2022-09-12T21:18:37.219Z,25.90
2022-09-12T21:21:05.357Z,25.90
2022-09-12T21:23:32.711Z,25.80
2022-09-12T21:26:00.271Z,25.80
2022-09-12T21:28:27.817Z,25.80
2022-09-12T21:30:54.874Z,25.70
2022-09-12T21:33:22.819Z,25.70
2022-09-12T21:35:50.301Z,25.60
2022-09-12T21:38:18.203Z,25.60
2022-09-12T21:40:45.410Z,25.60
2022-09-12T21:43:13.098Z,25.60
2022-09-12T21:45:40.597Z,25.60
2022-09-12T21:48:07.654Z,25.60
2022-09-12T21:50:34.466Z,25.60
2022-09-12T21:53:01.160Z,25.60
2022-09-12T21:55:28.206Z,25.60
2022-09-12T21:57:55.203Z,25.60
2022-09-12T22:00:22.516Z,25.60
2022-09-12T22:02:49.493Z,25.70
2022-09-12T22:05:17.172Z,25.70
2022-09-12T22:07:44.168Z,25.70
2022-09-12T22:10:11.131Z,25.80
2022-09-12T22:12:40.710Z,25.80
2022-09-12T22:15:38.479Z,25.80
2022-09-12T22:17:57.487Z,25.90
2022-09-12T22:20:24.208Z,25.90
2022-09-12T22:23:11.247Z,25.90
2022-09-12T22:25:38.127Z,26.00
2022-09-12T22:28:04.810Z,25.90
2022-09-12T22:30:32.366Z,25.90
2022-09-12T22:32:59.142Z,26.00
2022-09-12T22:35:26.139Z,26.00
2022-09-12T22:37:52.917Z,26.00
2022-09-12T22:40:19.794Z,26.00
2022-09-12T22:42:46.612Z,26.00
2022-09-12T22:45:13.352Z,26.00
2022-09-12T22:47:40.077Z,26.00
2022-09-12T22:50:07.208Z,26.00
2022-09-12T22:52:33.978Z,26.00
2022-09-12T22:55:00.667Z,25.90
2022-09-12T22:57:27.412Z,25.90
2022-09-12T22:59:54.141Z,25.90
2022-09-12T23:02:20.867Z,25.90
2022-09-12T23:04:47.801Z,25.90
2022-09-12T23:07:14.540Z,25.90
2022-09-12T23:09:41.322Z,25.90
2022-09-12T23:12:08.061Z,25.90
2022-09-12T23:14:34.904Z,25.90
2022-09-12T23:17:01.644Z,25.90
2022-09-12T23:19:28.306Z,25.90
2022-09-12T23:21:55.037Z,25.90
2022-09-12T23:24:21.849Z,25.90
2022-09-12T23:26:49.207Z,25.90
2022-09-12T23:29:15.950Z,25.90
2022-09-12T23:31:42.767Z,25.90
2022-09-12T23:34:10.349Z,25.90
2022-09-12T23:36:37.174Z,25.90
2022-09-12T23:39:04.231Z,25.80
2022-09-12T23:41:31.169Z,25.80
2022-09-12T23:43:57.898Z,25.80
2022-09-12T23:46:24.627Z,25.80
2022-09-12T23:48:53.312Z,25.80
2022-09-12T23:51:21.680Z,25.80
2022-09-12T23:53:48.530Z,25.80
2022-09-12T23:56:15.311Z,25.80
2022-09-12T23:58:42.351Z,25.80
